Terminal Aerodrome Forecast
Issued by NWS Albuquerque, NM

Home | Current Version | Previous Version | Text Only | Print | Product List | Glossary On
Versions: 1 2 3 4 5 6 7 8 9 10 11 12 13 14 15 16 17 18
000
FTUS45 KABQ 102300
TAFABQ
TAF
KABQ 102324Z 1100/1124 30010KT P6SM VCTS SCT080CB BKN150
     FM110200 12010KT P6SM VCSH BKN060
     FM110700 15005KT P6SM OVC060
     FM111300 36005KT P6SM OVC060
     FM112000 24010KT P6SM VCSH BKN060
     FM112300 21010KT P6SM BKN080=

USA.gov is the U.S. government's official web portal to all federal, state and local government web resources and services.